createdAt,value
2018-09-30T00:02:24.132Z,3.70
2018-09-30T00:04:53.173Z,4.07
2018-09-30T00:07:22.208Z,5.50
2018-09-30T00:15:02.751Z,5.40
2018-09-30T00:17:31.786Z,6.43
2018-09-30T00:20:00.817Z,4.20
2018-09-30T00:30:17.125Z,5.57
2018-09-30T00:32:46.162Z,5.07
2018-09-30T00:37:51.923Z,5.18
2018-09-30T00:40:20.953Z,3.87
2018-09-30T00:42:50.000Z,3.90
2018-09-30T00:47:55.721Z,6.18
2018-09-30T00:50:24.751Z,5.73
2018-09-30T00:52:53.788Z,4.40
2018-09-30T00:55:22.817Z,5.37
2018-09-30T00:57:51.863Z,5.83
2018-09-30T01:02:56.587Z,6.18
2018-09-30T01:05:27.578Z,4.10
2018-09-30T01:07:56.623Z,3.20
2018-09-30T01:10:25.670Z,5.13
2018-09-30T01:12:54.704Z,5.20
2018-09-30T01:15:23.728Z,5.03
2018-09-30T01:17:52.778Z,4.10
2018-09-30T01:20:21.812Z,3.87
2018-09-30T01:22:50.852Z,4.23
2018-09-30T01:25:19.883Z,4.10
2018-09-30T01:27:48.908Z,5.30
2018-09-30T01:30:18.844Z,4.53
2018-09-30T01:32:47.881Z,6.13
2018-09-30T01:35:18.921Z,4.07
2018-09-30T01:37:47.954Z,4.27
2018-09-30T01:40:17.077Z,4.67
2018-09-30T01:42:46.079Z,6.90
2018-09-30T01:45:15.140Z,4.23
2018-09-30T01:47:44.181Z,5.60
2018-09-30T01:50:13.233Z,4.03
2018-09-30T01:55:17.508Z,6.30
2018-09-30T01:57:46.543Z,7.73
2018-09-30T02:00:16.572Z,5.60
2018-09-30T02:02:47.640Z,3.73
2018-09-30T02:05:16.655Z,3.20
2018-09-30T02:07:45.695Z,3.53
2018-09-30T02:14:09.173Z,6.32
2018-09-30T02:19:14.946Z,4.18
2018-09-30T02:21:44.952Z,4.97
2018-09-30T02:24:14.012Z,3.90
2018-09-30T02:26:43.147Z,5.40
2018-09-30T02:29:13.185Z,4.90
2018-09-30T02:31:42.220Z,4.83
2018-09-30T02:34:11.260Z,3.63
2018-09-30T02:36:40.362Z,4.20
2018-09-30T02:39:09.433Z,4.82
2018-09-30T02:41:38.469Z,5.60
2018-09-30T02:44:07.499Z,4.30
2018-09-30T02:46:36.565Z,6.87
2018-09-30T02:49:05.726Z,5.57
2018-09-30T02:51:34.826Z,5.37
2018-09-30T02:54:03.837Z,4.80
2018-09-30T02:56:33.889Z,4.00
2018-09-30T02:59:02.930Z,4.82
2018-09-30T03:01:32.929Z,5.30
2018-09-30T03:04:02.113Z,4.13
2018-09-30T03:06:33.093Z,4.70
2018-09-30T03:09:07.681Z,3.60
2018-09-30T03:11:36.756Z,4.00
2018-09-30T03:14:05.791Z,4.80
2018-09-30T03:16:35.800Z,3.42
2018-09-30T03:19:05.868Z,3.87
2018-09-30T03:21:34.921Z,3.43
2018-09-30T03:24:04.932Z,4.70
2018-09-30T03:26:33.965Z,3.73
2018-09-30T03:29:03.026Z,3.50
2018-09-30T03:31:33.038Z,3.60
2018-09-30T03:34:03.992Z,8.67
2018-09-30T03:36:33.021Z,5.00
2018-09-30T03:39:02.058Z,3.50
2018-09-30T03:41:31.120Z,7.83
2018-09-30T03:44:00.162Z,4.53
2018-09-30T03:49:04.889Z,4.30
2018-09-30T03:51:34.857Z,4.23
2018-09-30T03:54:04.940Z,4.30
2018-09-30T03:56:34.952Z,4.97
2018-09-30T03:59:04.209Z,5.33
2018-09-30T04:01:33.249Z,5.80
2018-09-30T04:04:02.313Z,5.03
2018-09-30T04:06:31.341Z,4.53
2018-09-30T04:09:01.321Z,8.70
2018-09-30T04:11:30.350Z,3.70
2018-09-30T04:13:59.393Z,4.60
2018-09-30T04:16:32.703Z,8.00
2018-09-30T04:19:02.658Z,7.65
2018-09-30T04:21:32.652Z,5.10
2018-09-30T04:24:01.711Z,4.80
2018-09-30T04:26:32.734Z,4.40
2018-09-30T04:29:03.765Z,3.77
2018-09-30T04:31:33.755Z,4.80
2018-09-30T04:34:02.825Z,3.80
2018-09-30T04:36:34.824Z,4.23
2018-09-30T04:39:03.862Z,6.27
2018-09-30T04:41:32.936Z,3.40
2018-09-30T04:44:01.944Z,6.80
2018-09-30T04:46:31.385Z,4.30
2018-09-30T04:49:00.416Z,4.20
2018-09-30T04:51:30.432Z,6.97
2018-09-30T04:53:59.464Z,6.70
2018-09-30T04:56:28.499Z,3.63
2018-09-30T04:58:57.535Z,5.20
2018-09-30T05:01:26.589Z,7.33
2018-09-30T05:03:55.625Z,6.47
2018-09-30T05:06:25.652Z,4.60
2018-09-30T05:08:54.683Z,4.40
2018-09-30T05:11:23.728Z,5.63
2018-09-30T05:13:52.765Z,5.10
2018-09-30T05:18:57.609Z,4.90
2018-09-30T05:21:32.339Z,4.40
2018-09-30T05:24:01.641Z,4.33
2018-09-30T05:26:30.671Z,5.70
2018-09-30T05:28:59.744Z,5.00
2018-09-30T05:31:28.764Z,4.33
2018-09-30T05:33:57.793Z,4.73
2018-09-30T05:36:26.998Z,4.50
2018-09-30T05:41:31.747Z,4.50
2018-09-30T05:44:00.788Z,4.60
2018-09-30T05:49:06.617Z,5.60
2018-09-30T05:51:38.826Z,4.25
2018-09-30T05:54:08.951Z,4.60
2018-09-30T05:56:39.198Z,4.10
2018-09-30T05:59:08.234Z,4.03
2018-09-30T06:01:38.209Z,3.77
2018-09-30T06:06:42.993Z,4.68
2018-09-30T06:09:12.118Z,4.43
2018-09-30T06:11:49.304Z,5.47
2018-09-30T06:14:18.454Z,4.07
2018-09-30T06:16:47.389Z,4.93
2018-09-30T06:19:16.479Z,4.50
2018-09-30T06:21:47.392Z,4.30
2018-09-30T06:24:16.652Z,5.57
2018-09-30T06:29:24.901Z,4.60
2018-09-30T06:31:53.973Z,8.67
2018-09-30T06:34:22.985Z,4.63
2018-09-30T06:36:53.038Z,5.07
2018-09-30T06:39:22.068Z,4.10
2018-09-30T06:41:51.204Z,5.93
2018-09-30T06:46:56.057Z,7.78
2018-09-30T06:49:25.104Z,5.80
2018-09-30T06:51:55.116Z,4.87
2018-09-30T06:54:24.192Z,5.03
2018-09-30T06:59:33.013Z,7.05
2018-09-30T07:02:02.050Z,5.70
2018-09-30T07:04:31.169Z,5.35
2018-09-30T07:07:00.277Z,5.10
2018-09-30T07:09:29.310Z,5.60
2018-09-30T07:11:59.329Z,8.60
2018-09-30T07:14:36.117Z,5.70
2018-09-30T07:19:40.993Z,6.97
2018-09-30T07:22:10.069Z,6.50
2018-09-30T07:30:01.461Z,7.40
2018-09-30T07:32:31.465Z,8.20
2018-09-30T07:35:00.493Z,6.73
2018-09-30T07:37:31.493Z,8.50
2018-09-30T07:40:01.514Z,9.50
2018-09-30T07:42:40.152Z,8.03
2018-09-30T07:45:09.188Z,9.83
2018-09-30T07:47:38.299Z,8.73
2018-09-30T07:50:07.316Z,8.93
2018-09-30T07:52:36.444Z,9.70
2018-09-30T07:55:05.420Z,8.30
2018-09-30T07:57:34.451Z,10.43
2018-09-30T08:00:03.513Z,9.30
2018-09-30T08:02:32.972Z,9.23
2018-09-30T08:07:37.789Z,7.80
2018-09-30T08:10:06.821Z,10.50
2018-09-30T08:12:35.865Z,8.43
2018-09-30T08:15:04.913Z,7.67
2018-09-30T08:17:34.902Z,9.13
2018-09-30T08:20:05.025Z,11.63
2018-09-30T08:22:34.290Z,10.63
2018-09-30T08:25:03.778Z,10.67
2018-09-30T08:28:18.474Z,11.75
2018-09-30T08:30:47.543Z,12.87
2018-09-30T08:33:21.782Z,12.27
2018-09-30T08:35:51.878Z,15.77
2018-09-30T08:38:20.913Z,15.17
2018-09-30T08:40:49.994Z,17.90
2018-09-30T08:43:26.111Z,17.83
2018-09-30T08:45:55.257Z,16.10
2018-09-30T08:48:24.229Z,19.33
2018-09-30T08:50:53.303Z,20.03
2018-09-30T08:53:23.284Z,18.67
2018-09-30T08:55:52.399Z,17.00
2018-09-30T08:58:22.405Z,18.43
2018-09-30T09:00:52.425Z,18.17
2018-09-30T09:03:21.493Z,16.33
2018-09-30T09:05:50.548Z,16.63
2018-09-30T09:08:23.015Z,15.00
2018-09-30T09:13:27.913Z,14.80
2018-09-30T09:15:58.002Z,17.55
2018-09-30T09:18:28.000Z,17.20
2018-09-30T09:23:32.937Z,16.45
2018-09-30T09:26:01.992Z,16.57
2018-09-30T09:28:31.232Z,18.20
2018-09-30T09:31:00.331Z,16.90
2018-09-30T09:33:29.374Z,17.93
2018-09-30T09:35:58.492Z,18.60
2018-09-30T09:38:27.599Z,17.80
2018-09-30T09:40:56.612Z,18.93
2018-09-30T09:43:25.674Z,19.53
2018-09-30T09:45:54.746Z,20.03
2018-09-30T09:48:23.816Z,20.60
2018-09-30T09:50:52.885Z,18.87
2018-09-30T09:53:21.953Z,19.23
2018-09-30T09:55:51.008Z,19.63
2018-09-30T09:58:20.065Z,17.37
2018-09-30T10:00:49.128Z,18.50
2018-09-30T10:03:18.185Z,19.40
2018-09-30T10:05:47.386Z,18.50
2018-09-30T10:08:17.381Z,19.40
2018-09-30T10:10:48.402Z,20.07
2018-09-30T10:13:17.557Z,17.10
2018-09-30T10:15:52.136Z,16.00
2018-09-30T10:18:21.208Z,17.23
2018-09-30T10:20:50.260Z,16.53
2018-09-30T10:23:20.258Z,15.10
2018-09-30T10:25:49.305Z,16.23
2018-09-30T10:28:18.391Z,15.10
2018-09-30T10:30:48.389Z,16.87
2018-09-30T10:33:17.433Z,18.40
2018-09-30T10:35:46.489Z,17.23
2018-09-30T10:38:15.731Z,18.10
2018-09-30T10:40:44.784Z,17.27
2018-09-30T10:43:13.840Z,17.65
2018-09-30T10:48:18.837Z,17.70
2018-09-30T10:50:47.929Z,17.63
2018-09-30T10:53:17.018Z,17.60
2018-09-30T10:55:46.071Z,17.73
2018-09-30T10:58:16.337Z,17.80
2018-09-30T11:00:45.548Z,18.30
2018-09-30T11:03:14.594Z,19.40
2018-09-30T11:05:43.643Z,18.35
2018-09-30T11:08:13.082Z,20.60
2018-09-30T11:10:42.345Z,18.77
2018-09-30T11:13:11.453Z,18.63
2018-09-30T11:15:40.507Z,19.17
2018-09-30T11:18:09.631Z,19.77
2018-09-30T11:23:14.520Z,16.62
2018-09-30T11:28:19.313Z,17.75
2018-09-30T11:30:48.383Z,17.40
2018-09-30T11:33:17.464Z,19.55
2018-09-30T11:35:46.522Z,18.03
2018-09-30T11:40:51.456Z,17.90
2018-09-30T11:43:20.546Z,17.53
2018-09-30T11:45:49.614Z,18.47
2018-09-30T11:48:18.680Z,17.93
2018-09-30T11:50:47.733Z,19.50
2018-09-30T11:53:16.854Z,16.33
2018-09-30T11:58:22.725Z,17.40
2018-09-30T12:00:55.382Z,16.60
2018-09-30T12:03:24.947Z,17.65
2018-09-30T12:05:53.990Z,18.97
2018-09-30T12:08:23.058Z,18.60
2018-09-30T12:10:52.126Z,17.50
2018-09-30T12:13:21.180Z,17.43
2018-09-30T12:15:50.243Z,16.03
2018-09-30T12:18:19.293Z,18.13
2018-09-30T12:23:24.160Z,18.40
2018-09-30T12:25:57.011Z,17.40
2018-09-30T12:28:26.054Z,17.40
2018-09-30T12:36:08.701Z,16.33
2018-09-30T12:38:37.773Z,16.65
2018-09-30T12:41:13.821Z,15.63
2018-09-30T12:43:42.848Z,15.37
2018-09-30T12:46:14.092Z,16.17
2018-09-30T12:48:43.140Z,17.47
2018-09-30T12:51:12.211Z,16.03
2018-09-30T12:53:41.261Z,15.43
2018-09-30T12:56:10.345Z,15.50
2018-09-30T12:58:39.413Z,15.60
2018-09-30T13:03:44.364Z,13.43
2018-09-30T13:06:13.424Z,14.70
2018-09-30T13:08:43.491Z,15.52
2018-09-30T13:11:12.674Z,15.63
2018-09-30T13:13:41.724Z,13.63
2018-09-30T13:16:10.794Z,15.40
2018-09-30T13:18:44.546Z,16.27
2018-09-30T13:21:13.591Z,14.70
2018-09-30T13:23:42.639Z,14.50
2018-09-30T13:26:14.988Z,15.20
2018-09-30T13:28:45.002Z,15.13
2018-09-30T13:31:14.103Z,14.57
2018-09-30T13:33:44.039Z,14.43
2018-09-30T13:36:14.270Z,13.60
2018-09-30T13:38:45.225Z,13.47
2018-09-30T13:41:14.411Z,12.70
2018-09-30T13:43:43.375Z,12.80
2018-09-30T13:46:17.540Z,11.87
2018-09-30T13:48:46.573Z,13.13
2018-09-30T13:51:15.665Z,11.30
2018-09-30T13:53:50.047Z,10.77
2018-09-30T13:56:23.136Z,12.10
2018-09-30T13:58:52.177Z,12.63
2018-09-30T14:03:58.143Z,10.90
2018-09-30T14:06:27.194Z,10.90
2018-09-30T14:08:56.249Z,12.53
2018-09-30T14:11:25.324Z,12.00
2018-09-30T14:13:54.384Z,11.50
2018-09-30T14:16:23.436Z,12.03
2018-09-30T14:18:53.397Z,10.37
2018-09-30T14:21:22.453Z,9.77
2018-09-30T14:26:27.395Z,9.95
2018-09-30T14:28:57.533Z,9.20
2018-09-30T14:34:03.000Z,9.23
2018-09-30T14:36:32.918Z,7.77
2018-09-30T14:41:38.749Z,8.32
2018-09-30T14:44:09.849Z,8.20
2018-09-30T14:46:38.904Z,8.60
2018-09-30T14:49:07.987Z,9.87
2018-09-30T14:51:37.029Z,8.30
2018-09-30T14:54:06.292Z,9.37
2018-09-30T14:56:35.154Z,9.83
2018-09-30T14:59:04.225Z,8.93
2018-09-30T15:01:34.208Z,9.93
2018-09-30T15:06:39.107Z,7.55
2018-09-30T15:09:08.261Z,8.70
2018-09-30T15:14:14.138Z,8.75
2018-09-30T15:16:44.141Z,8.30
2018-09-30T15:19:13.273Z,8.50
2018-09-30T15:21:42.325Z,9.60
2018-09-30T15:26:47.169Z,8.85
2018-09-30T15:29:16.234Z,9.43
2018-09-30T15:31:45.303Z,8.43
2018-09-30T15:34:14.348Z,7.70
2018-09-30T15:36:44.448Z,8.70
2018-09-30T15:39:15.473Z,8.60
2018-09-30T15:41:44.521Z,12.07
2018-09-30T15:44:18.075Z,8.70
2018-09-30T15:46:47.117Z,26.00
2018-09-30T15:49:16.181Z,38.50
2018-09-30T15:54:21.483Z,10.00
2018-09-30T15:59:29.857Z,39.65
2018-09-30T16:01:58.913Z,16.63
2018-09-30T16:04:27.974Z,30.43
2018-09-30T16:06:57.056Z,26.77
2018-09-30T16:09:26.286Z,10.97
2018-09-30T16:11:55.326Z,8.40
2018-09-30T16:14:26.292Z,7.97
2018-09-30T16:19:31.101Z,8.55
2018-09-30T16:22:01.056Z,7.90
2018-09-30T16:24:31.017Z,7.77
2018-09-30T16:27:00.081Z,9.00
2018-09-30T16:32:04.940Z,9.80
2018-09-30T16:34:33.969Z,9.57
2018-09-30T16:37:03.045Z,8.60
2018-09-30T16:39:32.128Z,10.40
2018-09-30T16:42:01.182Z,9.20
2018-09-30T16:44:30.311Z,9.83
2018-09-30T16:46:59.314Z,10.73
2018-09-30T16:49:28.368Z,10.50
2018-09-30T16:54:33.261Z,10.65
2018-09-30T16:57:03.316Z,10.20
2018-09-30T17:02:08.237Z,11.27
2018-09-30T17:04:37.285Z,10.60
2018-09-30T17:07:06.352Z,13.10
2018-09-30T17:09:36.361Z,11.17
2018-09-30T17:12:05.429Z,10.50
2018-09-30T17:14:34.485Z,10.10
2018-09-30T17:17:05.686Z,12.03
2018-09-30T17:19:34.738Z,12.67
2018-09-30T17:22:12.534Z,16.77
2018-09-30T17:27:17.315Z,12.97
2018-09-30T17:29:46.373Z,13.83
2018-09-30T17:32:15.433Z,10.93
2018-09-30T17:34:44.556Z,12.53
2018-09-30T17:37:13.618Z,11.57
2018-09-30T17:47:30.994Z,13.20
2018-09-30T17:52:35.841Z,11.93
2018-09-30T17:55:04.914Z,10.50
2018-09-30T18:00:19.184Z,14.00
2018-09-30T18:05:23.440Z,12.90
2018-09-30T18:07:52.499Z,12.00
2018-09-30T18:10:21.567Z,13.87
2018-09-30T18:12:50.618Z,11.53
2018-09-30T18:17:55.394Z,12.83
2018-09-30T18:20:24.465Z,13.27
2018-09-30T18:22:55.494Z,14.20
2018-09-30T18:25:26.464Z,15.70
2018-09-30T18:27:55.517Z,13.73
2018-09-30T18:30:24.610Z,12.03
2018-09-30T18:32:53.670Z,10.63
2018-09-30T18:35:22.732Z,12.33
2018-09-30T18:37:51.855Z,12.00
2018-09-30T18:40:20.936Z,13.13
2018-09-30T18:42:50.117Z,14.20
2018-09-30T18:45:19.147Z,14.20
2018-09-30T18:50:23.916Z,16.20
2018-09-30T18:52:52.977Z,14.73
2018-09-30T18:55:22.029Z,14.60
2018-09-30T18:57:51.088Z,12.90
2018-09-30T19:00:20.166Z,14.30
2018-09-30T19:02:51.145Z,14.80
2018-09-30T19:05:20.340Z,12.60
2018-09-30T19:07:49.273Z,13.70
2018-09-30T19:10:18.391Z,12.60
2018-09-30T19:12:48.471Z,14.33
2018-09-30T19:17:54.246Z,17.90
2018-09-30T19:20:25.263Z,17.62
2018-09-30T19:22:54.519Z,16.30
2018-09-30T19:27:59.388Z,16.60
2018-09-30T19:30:28.475Z,16.30
2018-09-30T19:32:57.534Z,12.93
2018-09-30T19:35:26.587Z,13.90
2018-09-30T19:38:00.181Z,12.63
2018-09-30T19:40:29.227Z,13.10
2018-09-30T19:45:34.170Z,14.20
2018-09-30T19:48:03.227Z,12.27
2018-09-30T19:50:32.264Z,12.97
2018-09-30T19:53:03.376Z,13.87
2018-09-30T19:55:37.553Z,14.83
2018-09-30T19:58:06.609Z,12.50
2018-09-30T20:00:35.652Z,12.80
2018-09-30T20:03:05.644Z,13.53
2018-09-30T20:05:34.887Z,13.80
2018-09-30T20:08:03.990Z,14.17
2018-09-30T20:10:33.147Z,14.10
2018-09-30T20:13:02.263Z,13.83
2018-09-30T20:15:31.290Z,13.53
2018-09-30T20:18:00.350Z,14.43
2018-09-30T20:20:29.392Z,13.23
2018-09-30T20:22:58.454Z,15.03
2018-09-30T20:25:27.483Z,15.07
2018-09-30T20:27:56.530Z,15.90
2018-09-30T20:30:25.682Z,21.30
2018-09-30T20:33:02.248Z,18.77
2018-09-30T20:35:39.254Z,16.90
2018-09-30T20:38:13.900Z,18.53
2018-09-30T20:40:43.386Z,16.27
2018-09-30T20:43:15.874Z,16.93
2018-09-30T20:45:46.921Z,15.70
2018-09-30T20:48:17.053Z,18.40
2018-09-30T20:50:46.406Z,16.50
2018-09-30T20:53:15.465Z,16.20
2018-09-30T20:55:49.185Z,19.23
2018-09-30T20:58:18.576Z,18.33
2018-09-30T21:00:53.993Z,18.40
2018-09-30T21:03:25.509Z,16.30
2018-09-30T21:05:55.487Z,17.40
2018-09-30T21:08:32.761Z,18.20
2018-09-30T21:11:12.710Z,16.83
2018-09-30T21:13:54.222Z,16.60
2018-09-30T21:16:27.342Z,16.10
2018-09-30T21:19:02.996Z,18.57
2018-09-30T21:21:37.536Z,18.23
2018-09-30T21:24:14.381Z,17.40
2018-09-30T21:26:53.044Z,20.13
2018-09-30T21:29:29.135Z,19.23
2018-09-30T21:32:05.722Z,18.50
2018-09-30T21:34:41.832Z,19.07
2018-09-30T21:37:22.407Z,20.23
2018-09-30T21:39:56.130Z,21.77
2018-09-30T21:42:33.612Z,20.33
2018-09-30T21:45:10.522Z,23.43
2018-09-30T21:55:31.397Z,27.40
2018-09-30T21:58:09.847Z,23.67
2018-09-30T22:00:49.329Z,21.60
2018-09-30T22:03:26.097Z,23.20
2018-09-30T22:11:24.009Z,26.67
2018-09-30T22:14:00.880Z,21.00
2018-09-30T22:16:31.475Z,19.93
2018-09-30T22:19:06.292Z,21.40
2018-09-30T22:21:47.049Z,20.23
2018-09-30T22:24:23.550Z,24.07
2018-09-30T22:26:52.684Z,23.17
2018-09-30T22:29:21.645Z,24.17
2018-09-30T22:31:50.706Z,25.95
2018-09-30T22:36:55.541Z,28.53
2018-09-30T22:39:24.599Z,26.80
2018-09-30T22:41:54.597Z,25.50
2018-09-30T22:44:24.621Z,22.80
2018-09-30T22:46:53.693Z,23.97
2018-09-30T22:49:22.738Z,23.23
2018-09-30T22:51:51.870Z,26.12
2018-09-30T22:54:20.896Z,23.77
2018-09-30T22:56:49.941Z,24.37
2018-09-30T22:59:21.021Z,24.50
2018-09-30T23:01:50.652Z,24.90
2018-09-30T23:09:31.238Z,29.30
2018-09-30T23:12:00.278Z,22.57
2018-09-30T23:14:29.334Z,22.17
2018-09-30T23:17:01.451Z,21.30
2018-09-30T23:19:30.514Z,26.37
2018-09-30T23:24:35.345Z,27.83
2018-09-30T23:27:04.392Z,24.63
2018-09-30T23:29:33.602Z,21.47
2018-09-30T23:32:02.698Z,22.67
2018-09-30T23:34:31.757Z,21.70
2018-09-30T23:37:00.825Z,22.30
2018-09-30T23:42:05.596Z,25.60
2018-09-30T23:44:34.649Z,27.97
2018-09-30T23:47:03.694Z,21.43
2018-09-30T23:49:32.761Z,18.47
2018-09-30T23:54:37.542Z,24.40
2018-09-30T23:57:06.627Z,22.10
